KEDE/EDE METAR and TAF weather

Enter ICAO airport designator
Station Type Date Time Source
KEDE METAR 2019/02/21 00:00 UTC NOAA

KEDE 210000Z AUTO 00000KT 5SM BR OVC004 12/12 A3014 RMK AO2 T01150115


Station Type Date Time Source
KEDE Decoded METAR 2019/02/21 00:00 UTC NOAA

Edenton, Northeastern Regional Airport, NC, United States (KEDE) 36-01-40N 076-34-02W
Feb 20, 2019 - 07:00 PM EST / 2019.02.21 0000 UTC
Wind: Calm:0
Visibility: 5 mile(s):0
Sky conditions: overcast
Weather: mist
Temperature: 52.7 F (11.5 C)
Dew Point: 52.7 F (11.5 C)
Relative Humidity: 100%
Pressure (altimeter): 30.14 in. Hg (1020 hPa)
ob: KEDE 210000Z AUTO 00000KT 5SM BR OVC004 12/12 A3014 RMK AO2 T01150115
cycle: 0

Station Type Date Time Source
KEDE TAF UTC NOAA

Error!


Example: see airport list